Mali Losinj, Croatia
Current Conditions -  °F | °C
As of 10:30 AM on Monday 26 Jan 2015 (Local Time) from LDPL Reporting Station
Few Clouds Few Clouds  
Wind Chill: 37°   Ceiling: Unl
Heat Index: 43°   Visibility: 6mi
Dew Point: 28°   Wind: 9mph
Humidity: 57%   Direction: 50°NE
Pressure: 30.21"   Gusts: NA
Location:  44.53°N, 14.47°E
Report Text: LDPL 260830Z 05008KT 360V090 9999 FEW037 06/M02 Q1023 NOSIG
Loading
Personal Weather Stations






























Interactive Weather Map New forecast layout! Learn more

10-Day Weather Forecast

Advertisements
Track Severe Weather on mobile